Time;durP1;ratioP1;P1;durP2;ratioP2;P2;SDS_P1;SDS_P2;PMS_P1;PMS_P2;Temp;Humidity;BMP_temperature;BMP_pressure;BME280_temperature;BME280_humidity;BME280_pressure;Samples;Min_cycle;Max_cycle;Signal;HPM_P1;HPM_P2
2022/05/22 04:01:24;;;;;;;3.90;0.50;;;15.50;95.90;;;;;;5866196;22;88935;-61
2022/05/22 04:03:50;;;;;;;3.88;0.50;;;15.50;96.20;;;;;;4953617;28;87265;-61
2022/05/22 04:06:16;;;;;;;2.28;0.20;;;15.50;96.00;;;;;;4970767;28;87906;-60
2022/05/22 04:08:41;;;;;;;1.40;0.50;;;15.60;95.70;;;;;;4958238;28;88288;-61
2022/05/22 04:11:13;;;;;;;3.83;0.50;;;15.60;95.60;;;;;;4959693;28;88341;-59
2022/05/22 04:13:40;;;;;;;3.03;0.32;;;15.80;95.40;;;;;;4972725;28;87068;-61
2022/05/22 04:16:05;;;;;;;4.20;0.50;;;16.00;94.90;;;;;;4977929;28;86984;-60
2022/05/22 04:18:32;;;;;;;2.47;0.68;;;16.10;94.30;;;;;;4978681;28;87732;-61
2022/05/22 04:20:58;;;;;;;2.72;0.45;;;16.30;93.60;;;;;;4962019;28;86919;-61
2022/05/22 04:26:09;;;;;;;2.55;0.50;;;17.00;92.30;;;;;;4959866;28;86212;-61
2022/05/22 04:28:35;;;;;;;2.35;0.65;;;17.50;91.30;;;;;;4959200;28;87137;-61
2022/05/22 04:31:03;;;;;;;5.53;0.50;;;17.90;90.00;;;;;;4958083;28;87386;-61
2022/05/22 04:33:30;;;;;;;3.22;0.38;;;18.30;87.20;;;;;;4957581;28;88128;-60
2022/05/22 04:35:56;;;;;;;1.90;0.80;;;18.60;85.70;;;;;;4961327;28;87114;-60
2022/05/22 04:38:21;;;;;;;1.88;0.43;;;18.90;83.60;;;;;;4964542;28;87697;-60
2022/05/22 04:40:58;;;;;;;2.60;0.50;;;19.30;82.20;;;;;;4969595;28;88294;-61
2022/05/22 04:43:25;;;;;;;3.28;0.57;;;19.70;79.60;;;;;;4976833;28;87084;-61
2022/05/22 04:45:51;;;;;;;3.72;0.63;;;20.00;78.40;;;;;;4957528;28;86980;-61
2022/05/22 04:48:21;;;;;;;1.80;0.52;;;20.40;76.40;;;;;;4959146;28;87590;-62
2022/05/22 04:50:49;;;;;;;4.00;0.63;;;21.00;73.40;;;;;;4962122;28;89655;-62
2022/05/22 04:53:17;;;;;;;1.98;0.80;;;21.30;72.30;;;;;;4979200;28;87455;-62
2022/05/22 04:55:43;;;;;;;3.55;1.00;;;21.30;69.40;;;;;;4970693;28;87450;-62
2022/05/22 04:58:09;;;;;;;3.78;1.13;;;21.70;70.60;;;;;;4970257;28;89388;-70
2022/05/22 05:00:35;;;;;;;4.10;0.55;;;22.00;69.10;;;;;;4957470;28;87246;-70
2022/05/22 05:03:01;;;;;;;3.67;0.73;;;22.50;66.80;;;;;;4947212;28;88915;-71
2022/05/22 05:05:28;;;;;;;5.55;0.93;;;22.50;66.20;;;;;;4955832;28;86997;-69
2022/05/22 05:07:54;;;;;;;2.30;0.70;;;22.30;66.20;;;;;;4948917;28;87084;-70
2022/05/22 05:10:20;;;;;;;4.22;0.88;;;22.70;66.10;;;;;;4953027;28;87359;-70
2022/05/22 05:12:46;;;;;;;3.33;1.00;;;23.20;64.20;;;;;;4951467;28;87094;-70
2022/05/22 05:15:15;;;;;;;5.68;0.73;;;23.70;62.30;;;;;;4956773;28;86397;-70
2022/05/22 05:17:42;;;;;;;2.85;0.68;;;23.90;59.50;;;;;;4950070;28;87221;-70
2022/05/22 05:20:09;;;;;;;3.28;0.90;;;23.90;61.10;;;;;;4953858;28;87654;-70
2022/05/22 05:22:35;;;;;;;2.03;0.77;;;24.50;61.10;;;;;;4948427;28;88406;-71
2022/05/22 05:25:00;;;;;;;2.17;0.85;;;25.20;57.90;;;;;;4953575;28;87463;-70
2022/05/22 05:27:26;;;;;;;2.53;0.90;;;25.30;55.80;;;;;;4952904;28;87614;-71
2022/05/22 05:29:52;;;;;;;2.60;0.73;;;24.60;57.70;;;;;;4955462;28;87178;-70
2022/05/22 05:32:19;;;;;;;2.55;1.02;;;24.80;58.30;;;;;;4947290;28;87188;-70
2022/05/22 05:34:44;;;;;;;2.40;0.82;;;25.70;56.30;;;;;;4944128;28;86963;-71
2022/05/22 05:37:10;;;;;;;2.55;1.02;;;25.70;55.30;;;;;;4941156;28;87481;-70
2022/05/22 05:39:36;;;;;;;3.08;0.75;;;25.70;56.20;;;;;;4939229;28;86432;-71
2022/05/22 05:42:02;;;;;;;1.92;0.85;;;26.30;54.60;;;;;;4939625;28;87075;-71
2022/05/22 05:44:28;;;;;;;3.90;1.33;;;26.50;53.90;;;;;;4950370;28;87089;-72
2022/05/22 05:46:54;;;;;;;7.28;0.93;;;26.30;52.80;;;;;;4935698;28;88179;-72
2022/05/22 05:49:19;;;;;;;2.42;0.80;;;25.70;54.20;;;;;;4946367;28;87871;-72
2022/05/22 05:51:45;;;;;;;2.45;1.48;;;25.60;53.80;;;;;;4947201;28;86708;-71
2022/05/22 05:54:11;;;;;;;2.42;0.80;;;25.10;54.90;;;;;;4950375;28;87467;-72
2022/05/22 05:56:38;;;;;;;2.90;0.82;;;24.80;55.10;;;;;;4956066;28;87034;-72
2022/05/22 05:59:05;;;;;;;1.88;0.75;;;24.50;55.90;;;;;;4955113;28;87058;-71
2022/05/22 06:01:30;;;;;;;3.35;0.95;;;24.50;56.30;;;;;;4954223;28;87233;-72
2022/05/22 06:03:56;;;;;;;2.75;0.90;;;25.80;55.50;;;;;;4953879;28;86300;-73
2022/05/22 06:06:22;;;;;;;5.07;1.92;;;27.10;53.30;;;;;;4954709;28;88408;-72
2022/05/22 06:08:48;;;;;;;2.17;1.27;;;28.10;51.70;;;;;;4957366;28;87094;-73
2022/05/22 06:11:14;;;;;;;2.97;0.95;;;28.50;50.60;;;;;;4953699;28;88031;-73
2022/05/22 06:13:40;;;;;;;2.75;1.75;;;29.30;49.00;;;;;;4953448;28;87041;-73
2022/05/22 06:16:07;;;;;;;2.53;1.20;;;29.90;48.60;;;;;;4949292;28;89126;-73
2022/05/22 06:18:34;;;;;;;2.65;1.00;;;30.00;46.90;;;;;;4953254;28;86992;-71
2022/05/22 06:21:17;;;;;;;2.60;1.02;;;30.40;45.30;;;;;;4958717;28;87107;-71
2022/05/22 06:23:43;;;;;;;3.60;2.55;;;30.90;45.00;;;;;;4960047;28;87399;-73
2022/05/22 06:26:11;;;;;;;2.47;1.20;;;31.40;45.10;;;;;;4955579;28;87087;-71
2022/05/22 06:28:37;;;;;;;5.18;1.50;;;32.30;44.40;;;;;;4956770;28;86441;-71
2022/05/22 06:31:04;;;;;;;6.20;2.47;;;32.60;42.50;;;;;;4955307;28;87181;-71
2022/05/22 06:33:30;;;;;;;4.30;1.85;;;31.90;44.30;;;;;;4943454;28;86911;-72
2022/05/22 06:35:56;;;;;;;5.32;1.75;;;30.00;46.70;;;;;;4950814;28;87914;-72
2022/05/22 06:41:08;;;;;;;5.40;1.98;;;29.50;47.30;;;;;;4955317;28;88542;-72
2022/05/22 06:43:34;;;;;;;4.40;2.13;;;27.90;50.30;;;;;;4954183;28;88696;-71
2022/05/22 06:46:01;;;;;;;3.42;1.70;;;27.60;51.40;;;;;;4954360;28;87138;-72
2022/05/22 06:48:26;;;;;;;4.95;1.90;;;28.20;49.50;;;;;;4948390;28;87011;-72
2022/05/22 06:50:52;;;;;;;5.78;2.22;;;27.60;51.60;;;;;;4949422;28;87218;-72
2022/05/22 06:53:18;;;;;;;6.38;1.75;;;28.20;50.50;;;;;;4949676;28;86033;-71
2022/05/22 06:55:43;;;;;;;4.53;2.28;;;29.60;47.40;;;;;;4952629;28;87318;-71
2022/05/22 06:58:09;;;;;;;5.78;2.60;;;30.10;47.50;;;;;;4949525;28;87136;-71
2022/05/22 07:00:35;;;;;;;5.35;1.83;;;30.10;46.80;;;;;;4944396;28;87876;-71
2022/05/22 07:03:01;;;;;;;5.05;3.08;;;29.50;47.90;;;;;;4952087;28;87157;-72
2022/05/22 07:05:27;;;;;;;7.35;2.65;;;29.70;47.60;;;;;;4951540;28;87676;-72
2022/05/22 07:07:53;;;;;;;3.03;2.15;;;29.50;48.20;;;;;;4945187;28;87502;-72
2022/05/22 07:10:19;;;;;;;5.63;2.10;;;29.60;47.50;;;;;;4952393;28;86859;-72
2022/05/22 07:12:44;;;;;;;4.18;2.38;;;29.30;47.90;;;;;;4951787;28;86756;-71
2022/05/22 07:15:11;;;;;;;5.30;2.20;;;29.50;47.50;;;;;;4950211;28;87089;-72
2022/05/22 07:17:38;;;;;;;4.90;2.20;;;30.40;48.90;;;;;;4943884;28;87664;-72
2022/05/22 07:20:05;;;;;;;5.97;1.80;;;31.60;46.40;;;;;;4947154;28;87757;-72
2022/05/22 07:22:31;;;;;;;5.45;3.20;;;33.30;44.80;;;;;;4953913;28;86825;-72
2022/05/22 07:24:57;;;;;;;4.25;2.08;;;34.70;42.10;;;;;;4946172;28;88821;-72
2022/05/22 07:27:22;;;;;;;4.75;3.97;;;35.10;40.10;;;;;;4946276;28;87819;-73
2022/05/22 07:29:49;;;;;;;3.03;1.90;;;34.30;41.20;;;;;;4944810;28;86285;-72
2022/05/22 07:32:15;;;;;;;7.45;2.85;;;34.70;41.80;;;;;;4948791;28;87237;-72
2022/05/22 07:34:42;;;;;;;5.22;3.15;;;35.90;41.30;;;;;;4947221;28;87100;-72
2022/05/22 07:37:10;;;;;;;6.47;3.13;;;36.90;38.50;;;;;;4945260;28;87917;-73
2022/05/22 07:39:36;;;;;;;5.38;2.33;;;36.40;39.00;;;;;;4947474;28;87084;-74
2022/05/22 07:42:02;;;;;;;6.40;3.35;;;37.50;37.90;;;;;;4947883;28;86159;-73
2022/05/22 07:44:28;;;;;;;4.60;3.15;;;37.60;36.60;;;;;;4947374;28;87006;-72
2022/05/22 07:46:54;;;;;;;4.55;3.22;;;36.00;38.90;;;;;;4946967;28;88261;-72
2022/05/22 07:52:08;;;;;;;5.82;2.50;;;34.20;40.90;;;;;;4949509;28;87011;-73
2022/05/22 07:54:39;;;;;;;3.70;2.17;;;33.00;42.20;;;;;;4944273;28;87163;-73
2022/05/22 07:57:06;;;;;;;4.97;2.25;;;32.40;42.90;;;;;;4945878;28;87013;-73
2022/05/22 07:59:39;;;;;;;5.10;2.92;;;31.90;44.40;;;;;;4951898;28;87377;-73
2022/05/22 08:02:08;;;;;;;5.10;2.25;;;32.40;44.30;;;;;;4955453;28;87264;-72
2022/05/22 08:04:34;;;;;;;3.22;1.90;;;32.60;43.20;;;;;;4949758;28;87074;-72
2022/05/22 08:06:59;;;;;;;3.58;1.67;;;32.40;44.10;;;;;;4943482;28;86846;-72
2022/05/22 08:09:25;;;;;;;3.30;1.60;;;31.50;45.90;;;;;;4949601;28;86751;-73
2022/05/22 08:11:51;;;;;;;3.05;1.65;;;30.50;47.60;;;;;;4945610;28;87661;-72
2022/05/22 08:14:17;;;;;;;4.20;1.42;;;29.50;48.40;;;;;;4957627;28;88456;-73
2022/05/22 08:16:43;;;;;;;4.28;1.58;;;28.80;49.70;;;;;;4953474;28;87874;-73
2022/05/22 08:19:10;;;;;;;3.38;1.42;;;28.10;50.70;;;;;;4947316;28;87434;-72
2022/05/22 08:21:36;;;;;;;4.38;2.40;;;26.40;53.10;;;;;;4954162;28;87043;-72
2022/05/22 08:24:02;;;;;;;8.73;1.95;;;25.70;55.10;;;;;;4941630;28;87755;-72
2022/05/22 08:26:28;;;;;;;4.88;1.58;;;25.40;55.70;;;;;;4944718;28;87008;-73
2022/05/22 08:28:55;;;;;;;3.92;1.42;;;25.30;55.60;;;;;;4945175;28;86648;-71
2022/05/22 08:31:21;;;;;;;3.38;1.38;;;25.30;55.50;;;;;;4940517;28;86075;-72
2022/05/22 08:33:47;;;;;;;3.35;1.38;;;25.30;56.20;;;;;;4951216;28;87716;-72
2022/05/22 08:36:12;;;;;;;4.05;1.42;;;24.60;57.10;;;;;;4943586;28;88034;-72
2022/05/22 08:38:38;;;;;;;5.47;2.40;;;24.10;59.20;;;;;;4942408;28;88065;-72
2022/05/22 08:41:25;;;;;;;3.90;1.27;;;24.00;59.70;;;;;;4949062;28;86976;-72
2022/05/22 08:44:11;;;;;;;4.97;1.35;;;24.00;58.80;;;;;;4950700;28;87295;-71
2022/05/22 08:47:03;;;;;;;2.67;1.55;;;23.90;58.90;;;;;;4945264;28;86542;-72
2022/05/22 08:49:38;;;;;;;6.00;1.60;;;23.70;58.60;;;;;;4946586;28;86925;-72
2022/05/22 08:52:09;;;;;;;4.15;1.48;;;23.20;60.20;;;;;;4943600;28;87088;-72
2022/05/22 08:54:43;;;;;;;4.38;1.30;;;23.00;61.30;;;;;;4948811;28;88192;-72
2022/05/22 09:00:09;;;;;;;5.15;1.70;;;23.80;60.20;;;;;;4952355;28;86946;-72
2022/05/22 09:02:43;;;;;;;3.70;1.58;;;24.10;58.90;;;;;;4942053;28;87021;-71
2022/05/22 09:05:17;;;;;;;3.67;1.55;;;24.20;58.60;;;;;;4946544;28;89145;-72
2022/05/22 09:07:51;;;;;;;2.70;1.17;;;24.00;59.60;;;;;;4953067;28;88846;-72
2022/05/22 09:10:27;;;;;;;3.53;1.38;;;24.30;60.00;;;;;;4945313;28;87240;-72
2022/05/22 09:12:53;;;;;;;4.63;1.60;;;25.30;57.00;;;;;;4941105;28;87053;-72
2022/05/22 09:15:22;;;;;;;3.42;1.50;;;26.00;57.60;;;;;;4943557;28;89901;-72
2022/05/22 09:18:04;;;;;;;4.07;1.52;;;26.90;54.20;;;;;;4944780;28;87844;-72
2022/05/22 09:20:51;;;;;;;6.70;1.60;;;27.10;53.20;;;;;;4945709;28;87101;-73
2022/05/22 09:24:00;;;;;;;4.18;2.72;;;26.40;53.70;;;;;;4944270;28;86442;-72
2022/05/22 09:26:29;;;;;;;4.93;1.90;;;26.50;54.70;;;;;;4946104;28;87019;-73
2022/05/22 09:29:29;;;;;;;3.00;1.65;;;26.20;54.60;;;;;;4942871;28;87037;-72
2022/05/22 09:32:19;;;;;;;3.33;1.95;;;26.30;55.00;;;;;;4949166;28;87833;-72
2022/05/22 09:35:03;;;;;;;6.32;1.67;;;26.80;54.80;;;;;;4955073;28;87158;-72
2022/05/22 09:38:06;;;;;;;3.28;1.70;;;27.70;53.70;;;;;;4951393;28;87051;-72
2022/05/22 09:40:50;;;;;;;4.30;2.17;;;28.30;52.60;;;;;;4949746;28;87762;-73
2022/05/22 09:43:40;;;;;;;3.10;1.75;;;29.00;50.60;;;;;;4951952;28;87557;-72
2022/05/22 09:46:39;;;;;;;6.68;2.15;;;29.50;50.50;;;;;;4954188;28;87591;-72
2022/05/22 09:49:26;;;;;;;4.15;1.95;;;30.80;47.60;;;;;;4950000;28;87464;-72
2022/05/22 09:51:59;;;;;;;3.80;2.13;;;30.80;47.20;;;;;;4953846;28;86325;-72
2022/05/22 09:54:38;;;;;;;3.55;1.90;;;30.20;48.20;;;;;;4948275;28;87115;-73
2022/05/22 09:57:41;;;;;;;4.07;2.53;;;29.60;50.20;;;;;;4946333;28;87241;-73
2022/05/22 10:00:38;;;;;;;4.75;2.50;;;28.80;49.80;;;;;;4899492;28;91149;-73
2022/05/22 10:03:22;;;;;;;4.07;2.65;;;28.00;51.60;;;;;;4941492;28;87207;-72
2022/05/22 10:06:07;;;;;;;4.00;2.40;;;27.50;52.50;;;;;;4955216;28;86898;-72
2022/05/22 10:09:17;;;;;;;4.88;2.33;;;27.20;53.20;;;;;;4956052;28;86721;-72
2022/05/22 10:12:00;;;;;;;3.38;1.95;;;27.10;53.30;;;;;;4940392;28;87270;-73
2022/05/22 10:14:51;;;;;;;4.70;2.55;;;26.40;54.10;;;;;;4940151;28;89172;-72
2022/05/22 10:17:26;;;;;;;5.43;2.13;;;25.90;55.60;;;;;;4948125;28;87085;-72
2022/05/22 10:20:21;;;;;;;6.07;2.55;;;25.70;57.20;;;;;;4949635;28;86274;-72
2022/05/22 10:23:18;;;;;;;6.93;2.55;;;26.00;57.80;;;;;;4940918;28;86891;-72
2022/05/22 10:25:50;;;;;;;5.35;2.55;;;26.90;56.80;;;;;;4922736;28;87309;-72
2022/05/22 10:28:22;;;;;;;5.22;3.30;;;27.50;55.80;;;;;;4940622;28;88054;-74
2022/05/22 10:31:03;;;;;;;4.47;2.35;;;27.50;53.50;;;;;;4941808;28;87121;-72
2022/05/22 10:33:35;;;;;;;4.22;2.22;;;27.70;54.00;;;;;;4951298;28;88737;-72
2022/05/22 10:36:11;;;;;;;7.32;2.63;;;27.30;54.30;;;;;;4954204;28;87309;-72
2022/05/22 10:38:45;;;;;;;6.03;2.78;;;26.50;55.80;;;;;;4948701;28;86999;-72
2022/05/22 10:44:06;;;;;;;5.68;2.45;;;25.50;57.60;;;;;;4948302;28;87462;-72
2022/05/22 10:46:31;;;;;;;4.70;2.47;;;25.40;59.00;;;;;;4952816;28;86220;-72
2022/05/22 10:48:57;;;;;;;5.13;2.63;;;25.70;57.60;;;;;;4956708;28;89148;-73
2022/05/22 10:51:29;;;;;;;4.57;2.90;;;25.00;57.30;;;;;;4946481;28;87152;-72
2022/05/22 10:53:56;;;;;;;6.47;3.28;;;24.70;58.90;;;;;;4946102;28;88210;-72
2022/05/22 10:56:30;;;;;;;5.78;2.25;;;24.00;60.30;;;;;;4950541;28;87613;-72
2022/05/22 10:59:02;;;;;;;5.82;2.88;;;24.10;63.00;;;;;;4949730;28;87035;-72
2022/05/22 11:01:34;;;;;;;5.78;2.85;;;24.50;62.30;;;;;;4946137;28;88276;-73
2022/05/22 11:04:08;;;;;;;4.88;2.35;;;24.80;61.20;;;;;;4942106;28;87284;-73
2022/05/22 11:06:36;;;;;;;5.47;3.03;;;25.50;61.20;;;;;;4939206;28;87024;-72
2022/05/22 11:09:05;;;;;;;7.25;2.60;;;26.50;57.90;;;;;;4952006;28;87468;-72
2022/05/22 11:11:35;;;;;;;10.45;2.42;;;27.40;57.20;;;;;;4947544;28;86427;-73
2022/05/22 11:14:08;;;;;;;7.68;2.53;;;27.70;54.10;;;;;;4954450;28;87312;-73
2022/05/22 11:16:34;;;;;;;7.55;2.42;;;27.60;55.30;;;;;;4943281;28;86973;-72
2022/05/22 11:19:12;;;;;;;4.70;2.58;;;27.80;56.70;;;;;;4942995;28;88451;-72
2022/05/22 11:22:15;;;;;;;4.50;2.17;;;28.00;55.20;;;;;;4943545;28;87043;-72
2022/05/22 11:25:04;;;;;;;4.40;2.13;;;27.90;55.90;;;;;;4946725;28;87079;-73
2022/05/22 11:27:42;;;;;;;4.85;2.40;;;27.90;55.10;;;;;;4954535;28;86907;-73
2022/05/22 11:30:25;;;;;;;6.57;2.40;;;27.40;57.10;;;;;;4953475;28;88581;-73
2022/05/22 11:33:01;;;;;;;4.30;2.78;;;27.00;56.20;;;;;;4944328;28;87472;-73
2022/05/22 11:35:36;;;;;;;6.00;2.75;;;27.10;56.50;;;;;;4940367;28;87050;-73
2022/05/22 11:38:20;;;;;;;7.07;2.75;;;27.30;56.30;;;;;;4949373;28;87421;-74
2022/05/22 11:41:01;;;;;;;5.88;2.22;;;27.50;55.80;;;;;;4955004;28;87794;-73
2022/05/22 11:44:01;;;;;;;4.50;2.70;;;27.40;56.10;;;;;;4941367;28;87128;-73
2022/05/22 11:46:27;;;;;;;5.35;2.88;;;27.50;54.10;;;;;;4953981;28;88206;-74
2022/05/22 11:49:26;;;;;;;7.88;2.35;;;27.40;54.20;;;;;;4948148;28;87145;-73
2022/05/22 11:55:57;;;;;;;6.88;2.60;;;27.70;55.00;;;;;;4948333;28;87708;-73
2022/05/22 11:58:36;;;;;;;5.93;3.00;;;27.60;55.70;;;;;;4949714;28;87027;-73
2022/05/22 12:01:21;;;;;;;9.43;2.80;;;27.30;55.20;;;;;;4947110;28;87381;-73
2022/05/22 12:04:17;;;;;;;6.00;2.88;;;27.50;57.20;;;;;;4908003;28;87324;-72
2022/05/22 12:07:12;;;;;;;6.78;3.13;;;27.40;57.60;;;;;;4911645;28;88220;-74
2022/05/22 12:10:09;;;;;;;8.85;3.25;;;27.50;55.70;;;;;;4906727;28;86957;-73
2022/05/22 12:13:02;;;;;;;4.97;3.15;;;27.50;57.40;;;;;;4904479;28;87435;-73
2022/05/22 12:15:47;;;;;;;6.50;3.25;;;27.30;56.50;;;;;;4910845;28;87896;-73
2022/05/22 12:18:30;;;;;;;5.90;3.25;;;27.00;57.80;;;;;;4907565;28;87412;-73
2022/05/22 12:21:07;;;;;;;9.32;2.72;;;26.90;57.70;;;;;;4908541;28;87151;-73
2022/05/22 12:23:33;;;;;;;5.97;2.78;;;27.10;58.40;;;;;;4912323;28;87874;-74
2022/05/22 12:26:06;;;;;;;7.38;3.03;;;27.30;58.30;;;;;;4906701;28;87172;-73
2022/05/22 12:28:59;;;;;;;7.90;3.35;;;27.80;55.70;;;;;;4913911;28;87104;-73
2022/05/22 12:31:31;;;;;;;7.55;3.30;;;27.90;56.00;;;;;;4909758;28;87338;-73
2022/05/22 12:34:03;;;;;;;7.55;3.25;;;28.00;55.00;;;;;;4913509;28;87757;-73
2022/05/22 12:36:30;;;;;;;6.13;3.33;;;28.00;55.70;;;;;;4911948;28;87054;-73
2022/05/22 12:39:04;;;;;;;7.07;3.63;;;28.60;54.90;;;;;;4907146;28;88082;-73
2022/05/22 12:41:49;;;;;;;4.03;2.75;;;28.40;53.30;;;;;;4910621;28;88181;-72
2022/05/22 12:44:15;;;;;;;6.18;3.08;;;28.40;54.70;;;;;;4908608;28;89365;-73
2022/05/22 12:46:41;;;;;;;6.18;2.80;;;28.10;54.40;;;;;;4910198;28;87356;-72
2022/05/22 12:49:23;;;;;;;6.13;2.85;;;27.40;55.80;;;;;;4911918;28;87064;-73
2022/05/22 12:51:59;;;;;;;5.05;2.95;;;27.10;57.60;;;;;;4909417;28;87639;-73
2022/05/22 12:54:27;;;;;;;7.45;2.75;;;27.00;58.10;;;;;;4915357;28;87734;-73
2022/05/22 12:57:04;;;;;;;11.77;3.40;;;27.00;57.90;;;;;;4911641;28;87628;-73
2022/05/22 12:59:30;;;;;;;6.07;2.88;;;27.10;58.10;;;;;;4910871;28;86211;-73
2022/05/22 13:01:58;;;;;;;6.30;2.72;;;27.10;58.40;;;;;;4927356;28;87292;-73
2022/05/22 13:04:31;;;;;;;4.90;2.67;;;27.10;58.80;;;;;;4946840;28;87362;-73
2022/05/22 13:07:01;;;;;;;4.85;2.90;;;26.60;57.20;;;;;;4955437;28;87685;-73
2022/05/22 13:09:36;;;;;;;5.10;3.08;;;26.50;58.50;;;;;;4948659;28;86703;-73
2022/05/22 13:12:15;;;;;;;4.97;2.92;;;26.50;57.80;;;;;;4953491;28;87355;-73
2022/05/22 13:15:16;;;;;;;8.38;3.15;;;26.50;57.90;;;;;;4946321;28;87277;-73
2022/05/22 13:17:51;;;;;;;5.82;2.83;;;26.30;57.60;;;;;;4930913;28;86780;-73
2022/05/22 13:20:49;;;;;;;6.88;2.75;;;26.30;59.70;;;;;;4950711;28;87140;-75
2022/05/22 13:23:24;;;;;;;7.18;2.63;;;26.20;58.70;;;;;;4947274;28;87887;-73
2022/05/22 13:25:55;;;;;;;5.57;2.75;;;26.40;59.70;;;;;;4950457;28;86797;-74
2022/05/22 13:28:20;;;;;;;7.40;2.70;;;26.70;58.80;;;;;;4955322;28;87291;-74
2022/05/22 13:30:51;;;;;;;5.45;2.70;;;26.50;58.60;;;;;;4953667;28;87443;-73
2022/05/22 13:33:17;;;;;;;4.38;2.65;;;26.70;58.70;;;;;;4951249;28;88142;-74
2022/05/22 13:35:58;;;;;;;3.92;2.45;;;26.90;58.00;;;;;;4953630;28;87575;-74
2022/05/22 13:38:23;;;;;;;6.45;2.70;;;27.00;58.40;;;;;;4954529;28;87113;-73
2022/05/22 13:40:49;;;;;;;7.93;3.67;;;27.30;57.40;;;;;;4953870;28;87048;-74
2022/05/22 13:43:27;;;;;;;6.70;2.60;;;27.30;57.00;;;;;;4955602;28;87630;-74
2022/05/22 13:46:26;;;;;;;5.88;2.75;;;27.30;56.70;;;;;;4941150;28;88012;-74
2022/05/22 13:49:17;;;;;;;5.68;2.65;;;27.30;58.00;;;;;;4946496;28;86809;-74
2022/05/22 13:54:53;;;;;;;4.70;2.58;;;27.30;57.40;;;;;;4948157;28;87211;-73
2022/05/22 13:57:21;;;;;;;4.28;2.63;;;27.10;56.60;;;;;;4951875;28;87399;-74
2022/05/22 13:59:54;;;;;;;5.47;3.28;;;27.20;56.90;;;;;;4952987;28;87861;-74
2022/05/22 14:02:24;;;;;;;7.15;2.55;;;27.20;56.80;;;;;;4944204;28;86745;-75
2022/05/22 14:04:53;;;;;;;5.43;2.28;;;26.90;56.80;;;;;;4951356;28;88212;-73
2022/05/22 14:07:55;;;;;;;6.95;2.50;;;27.00;57.40;;;;;;4949286;28;87321;-74
2022/05/22 14:10:36;;;;;;;4.60;2.05;;;27.50;55.50;;;;;;4939550;28;87169;-75
2022/05/22 14:13:22;;;;;;;5.05;2.20;;;27.90;56.30;;;;;;4949443;28;87088;-74
2022/05/22 14:15:50;;;;;;;5.80;2.05;;;28.30;54.00;;;;;;4945328;28;87681;-74
2022/05/22 14:18:24;;;;;;;5.70;2.45;;;28.40;54.60;;;;;;4935178;28;88236;-74
2022/05/22 14:20:52;;;;;;;5.85;2.42;;;28.40;54.30;;;;;;4951215;28;87036;-74
2022/05/22 14:23:26;;;;;;;4.25;2.30;;;28.30;55.00;;;;;;4948822;28;88400;-74
2022/05/22 14:26:13;;;;;;;5.03;2.20;;;28.20;55.50;;;;;;4942465;28;89228;-74
2022/05/22 14:28:45;;;;;;;4.20;1.85;;;28.10;54.60;;;;;;4947539;28;87121;-74
2022/05/22 14:31:19;;;;;;;3.72;1.98;;;28.10;55.20;;;;;;4943623;28;87116;-73
2022/05/22 14:33:45;;;;;;;3.78;2.17;;;28.30;54.90;;;;;;4952154;28;87080;-74
2022/05/22 14:36:18;;;;;;;7.63;3.67;;;28.30;55.40;;;;;;4953656;28;87862;-74
2022/05/22 14:38:48;;;;;;;3.40;2.20;;;28.10;55.70;;;;;;4945483;28;87111;-73
2022/05/22 14:41:18;;;;;;;5.90;1.85;;;28.20;55.80;;;;;;4947333;28;87050;-73
2022/05/22 14:43:50;;;;;;;3.30;1.88;;;28.40;53.90;;;;;;4956632;28;86523;-73
2022/05/22 14:46:31;;;;;;;6.00;2.22;;;28.40;54.70;;;;;;4940817;28;87137;-73
2022/05/22 14:49:01;;;;;;;8.20;1.73;;;28.00;56.00;;;;;;4944076;28;87609;-73
2022/05/22 14:52:09;;;;;;;3.83;1.85;;;28.10;56.40;;;;;;4955613;28;88386;-73
2022/05/22 14:54:40;;;;;;;;;;;27.60;56.10;;;;;;4943620;28;86796;-74
2022/05/22 14:57:08;;;;;;;6.72;2.30;;;27.60;57.20;;;;;;4952495;28;87079;-74
2022/05/22 15:00:13;;;;;;;3.63;1.73;;;27.80;56.50;;;;;;4948715;28;87294;-73
2022/05/22 15:02:43;;;;;;;4.18;2.50;;;27.70;56.10;;;;;;4860213;28;87125;-74
2022/05/22 15:05:16;;;;;;;4.03;1.77;;;27.20;56.80;;;;;;4931613;28;87177;-74
2022/05/22 15:07:56;;;;;;;5.05;2.45;;;27.10;57.40;;;;;;4948905;28;88722;-73
2022/05/22 15:10:37;;;;;;;5.63;1.88;;;27.20;58.20;;;;;;4947875;28;86817;-73
2022/05/22 15:13:32;;;;;;;5.05;1.77;;;27.30;58.60;;;;;;4947515;28;87308;-73
2022/05/22 15:16:15;;;;;;;6.70;2.00;;;27.10;57.20;;;;;;4946191;28;87133;-74
2022/05/22 15:21:27;;;;;;;3.95;1.90;;;27.10;58.10;;;;;;4942237;28;86945;-74
2022/05/22 15:26:46;;;;;;;4.07;2.42;;;26.70;59.10;;;;;;4942729;28;87040;-75
2022/05/22 15:29:18;;;;;;;6.53;1.73;;;26.70;58.40;;;;;;4943456;28;87266;-75
2022/05/22 15:31:43;;;;;;;4.15;1.90;;;26.60;58.10;;;;;;4940243;28;87064;-74
2022/05/22 15:34:22;;;;;;;6.25;1.45;;;26.60;59.80;;;;;;4945866;28;86944;-75
2022/05/22 15:36:47;;;;;;;4.28;2.78;;;26.50;59.90;;;;;;4947156;28;86207;-74
2022/05/22 15:39:26;;;;;;;4.45;2.83;;;26.50;60.00;;;;;;4945853;28;87763;-74
2022/05/22 15:42:16;;;;;;;5.05;2.13;;;26.70;59.80;;;;;;4942146;28;87698;-75
2022/05/22 15:44:56;;;;;;;4.60;2.08;;;26.70;57.50;;;;;;4944398;28;88064;-74
2022/05/22 15:47:30;;;;;;;4.85;1.88;;;26.50;58.40;;;;;;4947500;28;87650;-74
2022/05/22 15:52:58;;;;;;;5.53;2.17;;;26.00;60.40;;;;;;4948087;28;87046;-74
2022/05/22 15:55:27;;;;;;;6.57;2.03;;;25.90;60.40;;;;;;4946047;28;86286;-74
2022/05/22 15:57:53;;;;;;;4.28;1.90;;;26.00;61.10;;;;;;4943913;28;87143;-73
2022/05/22 16:00:20;;;;;;;3.95;1.80;;;26.30;59.20;;;;;;4950250;28;88130;-75
2022/05/22 16:02:51;;;;;;;8.25;1.95;;;26.20;59.50;;;;;;4955069;28;86849;-74
2022/05/22 16:05:20;;;;;;;6.35;1.95;;;26.40;59.90;;;;;;4946733;28;87113;-75
2022/05/22 16:07:47;;;;;;;3.53;2.05;;;26.20;59.20;;;;;;4946321;28;87155;-74
2022/05/22 16:10:14;;;;;;;4.28;1.50;;;26.20;59.60;;;;;;4947940;28;88341;-74
2022/05/22 16:12:40;;;;;;;4.72;2.35;;;26.10;59.50;;;;;;4947342;28;87859;-74
2022/05/22 16:15:07;;;;;;;5.57;1.80;;;26.10;60.30;;;;;;4951048;28;86963;-74
2022/05/22 16:17:34;;;;;;;5.05;2.28;;;26.20;61.00;;;;;;4945920;28;87137;-74
2022/05/22 16:20:08;;;;;;;5.60;2.13;;;26.40;59.80;;;;;;4948562;28;87069;-73
2022/05/22 16:22:34;;;;;;;7.00;1.83;;;26.40;60.20;;;;;;4945008;28;87948;-74
2022/05/22 16:24:59;;;;;;;3.03;1.63;;;26.40;59.80;;;;;;4950059;28;87113;-74
2022/05/22 16:27:25;;;;;;;10.18;2.05;;;26.50;60.10;;;;;;4957917;28;86428;-74
2022/05/22 16:29:50;;;;;;;4.15;1.92;;;26.40;60.80;;;;;;4943213;28;87983;-74
2022/05/22 16:32:16;;;;;;;4.82;1.50;;;26.30;60.60;;;;;;4951514;28;87908;-74
2022/05/22 16:34:42;;;;;;;2.75;1.55;;;26.20;60.90;;;;;;4941867;28;88615;-74
2022/05/22 16:37:11;;;;;;;4.13;1.38;;;26.10;60.00;;;;;;4951350;28;87176;-74
2022/05/22 16:39:38;;;;;;;3.92;1.60;;;26.10;58.70;;;;;;4950728;28;87752;-74
2022/05/22 16:42:04;;;;;;;4.47;1.50;;;25.90;58.20;;;;;;4945816;28;87698;-74
2022/05/22 16:44:30;;;;;;;4.00;1.52;;;25.70;57.40;;;;;;4951003;28;87049;-73
2022/05/22 16:46:59;;;;;;;3.45;1.25;;;25.50;58.20;;;;;;4943757;28;87024;-74
2022/05/22 16:54:55;;;;;;;6.57;1.23;;;24.60;61.50;;;;;;4947873;28;87086;-74
2022/05/22 16:57:27;;;;;;;3.28;1.83;;;24.40;62.80;;;;;;4943050;28;87168;-75
2022/05/22 16:59:53;;;;;;;4.10;1.42;;;24.40;62.70;;;;;;4946963;28;88879;-74
2022/05/22 17:02:19;;;;;;;3.97;1.75;;;24.30;62.50;;;;;;4947326;28;88163;-75
2022/05/22 17:04:45;;;;;;;3.15;1.50;;;24.40;62.40;;;;;;4953244;28;86890;-74
2022/05/22 17:07:11;;;;;;;3.00;1.55;;;24.30;62.10;;;;;;4949632;28;86802;-74
2022/05/22 17:09:43;;;;;;;3.83;1.50;;;24.30;61.60;;;;;;4949076;28;88339;-74
2022/05/22 17:12:13;;;;;;;2.78;1.00;;;24.20;60.00;;;;;;4944923;28;89380;-75
2022/05/22 17:14:41;;;;;;;6.47;1.70;;;24.10;60.00;;;;;;4953541;28;87036;-74
2022/05/22 17:17:08;;;;;;;4.55;1.52;;;24.10;60.20;;;;;;4947634;28;86354;-74
2022/05/22 17:19:35;;;;;;;4.65;1.40;;;24.10;60.70;;;;;;4949162;28;87032;-74
2022/05/22 17:22:14;;;;;;;4.50;1.42;;;24.20;59.10;;;;;;4942578;28;87623;-75
2022/05/22 17:25:12;;;;;;;6.20;1.55;;;24.30;59.30;;;;;;4946088;28;87941;-74
2022/05/22 17:27:45;;;;;;;3.25;1.15;;;24.30;60.00;;;;;;4929591;28;87142;-74
2022/05/22 17:30:17;;;;;;;4.18;1.20;;;24.50;59.90;;;;;;4950743;28;87788;-74
2022/05/22 17:32:42;;;;;;;4.10;1.38;;;24.40;59.40;;;;;;4951637;28;89266;-74
2022/05/22 17:35:10;;;;;;;3.05;1.35;;;24.40;59.50;;;;;;4949862;28;87180;-76
2022/05/22 17:37:39;;;;;;;3.53;1.13;;;24.40;59.40;;;;;;4948652;28;87083;-76
2022/05/22 17:40:09;;;;;;;3.90;1.10;;;24.10;59.70;;;;;;4949084;28;88002;-77
2022/05/22 17:42:34;;;;;;;2.45;1.13;;;24.00;60.70;;;;;;4952007;28;88028;-76
2022/05/22 17:45:01;;;;;;;4.45;1.33;;;23.80;60.20;;;;;;4947311;28;86924;-74
2022/05/22 17:47:27;;;;;;;4.57;1.38;;;23.70;61.60;;;;;;4948784;28;87011;-76
2022/05/22 17:49:52;;;;;;;6.47;1.20;;;23.60;62.20;;;;;;4946985;28;89652;-77
2022/05/22 17:52:18;;;;;;;5.35;1.10;;;23.40;62.50;;;;;;4944858;28;87923;-75